Impacts TAF Board
For situational awareness. Not to be used for flight planning purposes.
IDs:

KIAD - Washington/Dulles In, VA, US

Issued at 2043 UTC 20 Oct 2018
Updated at 2129 UTC 20 Oct 2018
Potential Impact None Slight Moderate High
Time2052Z 20/22Z 20/23Z 21/00Z 21/01Z 21/02Z 21/03Z 21/04Z 21/05Z 21/06Z 21/07Z 21/08Z 21/09Z 21/10Z>>
Type OBS PRVL PRVL PRVL PRVL PRVL PRVL PRVL PRVL PRVL PRVL PRVL PRVL PRVL
VIS 10 >6 >6 >6 >6 >6 >6 >6 >6 >6 >6 >6 >6 >6
CIG 80 -- -- -- -- -- 70 70 70 70 70 70 -- --
Cover BKN SCT SCT SCT SCT SCT BKN BKN BKN BKN BKN BKN SCT SCT
FltCat VFR VFR VFR VFR VFR VFR VFR VFR VFR VFR VFR VFR VFR VFR
WX -- -- -- -- -- -- -- -- -- -- -- -- -- --
WDir 280 280 280 280 280 280 270 270 270 270 270 270 300 300
WSpd 5 9 9 9 9 9 10 10 10 10 10 10 18 18
WGst -- -- -- -- -- -- 19 19 19 19 19 19 34 34
Raw TAF
KIAD 202043Z 2021/2124 28010G16KT P6SM BKN040
  FM202200 28009KT P6SM SCT045
  FM210300 27010G19KT P6SM BKN070
  FM210900 30018G34KT P6SM SCT035
  FM211200 32017G32KT P6SM FEW050
  FM212200 31013G24KT P6SM FEW250


Raw METAR
KIAD 202052Z 28005KT 10SM BKN080 18/07 A2967 RMK AO2 SLP047 T01830072 56026
KIAD 202018Z 28007KT 10SM BKN080 19/07 A2968 RMK AO2 T01890067
KIAD 201952Z 27008KT 230V300 10SM BKN065 BKN250 19/07 A2968 RMK AO2 SLP050 T01940072
KIAD 201852Z VRB03KT 10SM SCT060 SCT075 18/10 A2972 RMK AO2 SLP063 T01830100

METAR Board
Radar Display
Forecast Discussion
For situational awareness. Not to be used for flight planning purposes.